createdAt,value
2023-01-30T00:00:00.000Z,24.96
2023-01-30T00:15:00.000Z,23.25
2023-01-30T00:30:00.000Z,24.02
2023-01-30T00:45:00.000Z,23.34
2023-01-30T01:00:00.000Z,22.36
2023-01-30T01:15:00.000Z,20.19
2023-01-30T01:30:00.000Z,19.12
2023-01-30T01:45:00.000Z,18.89
2023-01-30T02:00:00.000Z,18.82
2023-01-30T02:15:00.000Z,17.31
2023-01-30T02:30:00.000Z,16.73
2023-01-30T02:45:00.000Z,15.93
2023-01-30T03:00:00.000Z,15.99
2023-01-30T03:15:00.000Z,16.25
2023-01-30T03:30:00.000Z,15.62
2023-01-30T03:45:00.000Z,18.48
2023-01-30T04:00:00.000Z,45.99
2023-01-30T04:15:00.000Z,15.45
2023-01-30T04:30:00.000Z,17.82
2023-01-30T04:45:00.000Z,13.56
2023-01-30T05:00:00.000Z,12.01
2023-01-30T05:15:00.000Z,11.76
2023-01-30T05:30:00.000Z,12
2023-01-30T05:45:00.000Z,11.96
2023-01-30T06:00:00.000Z,11.71
2023-01-30T06:15:00.000Z,11.14
2023-01-30T06:30:00.000Z,11.02
2023-01-30T06:45:00.000Z,10.74
2023-01-30T07:00:00.000Z,11.16
2023-01-30T07:15:00.000Z,11.68
2023-01-30T07:30:00.000Z,11.54
2023-01-30T07:45:00.000Z,12.53
2023-01-30T08:00:00.000Z,11.75
2023-01-30T08:15:00.000Z,10.56
2023-01-30T08:30:00.000Z,10.2
2023-01-30T08:45:00.000Z,10.2
2023-01-30T09:00:00.000Z,9.54
2023-01-30T09:15:00.000Z,9.06
2023-01-30T09:30:00.000Z,8.88
2023-01-30T09:45:00.000Z,9.18
2023-01-30T10:00:00.000Z,9.24
2023-01-30T10:15:00.000Z,9.01
2023-01-30T10:30:00.000Z,10.14
2023-01-30T10:45:00.000Z,8.59
2023-01-30T11:00:00.000Z,8.73
2023-01-30T11:15:00.000Z,7.87
2023-01-30T11:30:00.000Z,4.62
2023-01-30T11:45:00.000Z,2.06
2023-01-30T12:00:00.000Z,1.28
2023-01-30T12:15:00.000Z,1.34
2023-01-30T12:30:00.000Z,1.18
2023-01-30T12:45:00.000Z,1.18
2023-01-30T13:00:00.000Z,1.12
2023-01-30T13:15:00.000Z,1.45
2023-01-30T13:30:00.000Z,2.68
2023-01-30T13:45:00.000Z,2.79
2023-01-30T14:00:00.000Z,3.06
2023-01-30T14:15:00.000Z,1.29
2023-01-30T14:30:00.000Z,1.35
2023-01-30T14:45:00.000Z,1.95
2023-01-30T15:00:00.000Z,3.08
2023-01-30T15:15:00.000Z,2.8
2023-01-30T15:30:00.000Z,1.52
2023-01-30T15:45:00.000Z,2.66
2023-01-30T16:00:00.000Z,2.29
2023-01-30T16:15:00.000Z,3.53
2023-01-30T16:30:00.000Z,3.19
2023-01-30T16:45:00.000Z,2.67
2023-01-30T17:00:00.000Z,3.49
2023-01-30T17:15:00.000Z,4.39
2023-01-30T17:30:00.000Z,7.4
2023-01-30T17:45:00.000Z,6.19
2023-01-30T18:00:00.000Z,7.74
2023-01-30T18:15:00.000Z,6.71
2023-01-30T18:30:00.000Z,7.2
2023-01-30T18:45:00.000Z,6.78
2023-01-30T19:00:00.000Z,6.88
2023-01-30T19:15:00.000Z,7.09
2023-01-30T19:30:00.000Z,8.78
2023-01-30T19:45:00.000Z,7.19
2023-01-30T20:00:00.000Z,10.75
2023-01-30T20:15:00.000Z,7.29
2023-01-30T20:30:00.000Z,7.4
2023-01-30T20:45:00.000Z,8.07
2023-01-30T21:00:00.000Z,8.34
2023-01-30T21:15:00.000Z,8.09
2023-01-30T21:30:00.000Z,9.98
2023-01-30T21:45:00.000Z,8.92
2023-01-30T22:00:00.000Z,8.38
2023-01-30T22:15:00.000Z,8.05
2023-01-30T22:30:00.000Z,7.28
2023-01-30T22:45:00.000Z,7.21
2023-01-30T23:00:00.000Z,6.86
2023-01-30T23:15:00.000Z,6.84
2023-01-30T23:30:00.000Z,6.95
2023-01-30T23:45:00.000Z,7.31
